createdAt,value
2024-04-25T00:02:24.042Z,13.68
2024-04-25T00:05:15.091Z,10.98
2024-04-25T00:08:09.657Z,25.45
2024-04-25T00:11:01.024Z,12.98
2024-04-25T00:13:55.249Z,10.70
2024-04-25T00:16:46.454Z,15.48
2024-04-25T00:19:38.285Z,14.35
2024-04-25T00:22:29.369Z,14.15
2024-04-25T00:25:23.125Z,13.00
2024-04-25T00:28:15.730Z,12.25
2024-04-25T00:31:07.182Z,13.50
2024-04-25T00:34:00.110Z,12.98
2024-04-25T00:39:43.239Z,12.35
2024-04-25T00:42:36.957Z,13.53
2024-04-25T00:45:28.064Z,11.20
2024-04-25T00:48:19.900Z,13.07
2024-04-25T00:51:13.166Z,9.63
2024-04-25T00:56:56.352Z,17.05
2024-04-25T00:59:53.915Z,10.50
2024-04-25T01:02:46.600Z,12.82
2024-04-25T01:05:40.056Z,12.65
2024-04-25T01:08:33.330Z,12.30
2024-04-25T01:11:24.953Z,13.75
2024-04-25T01:14:16.133Z,12.68
2024-04-25T01:17:10.171Z,15.32
2024-04-25T01:20:01.243Z,11.43
2024-04-25T01:22:55.514Z,12.20
2024-04-25T01:25:50.291Z,15.98
2024-04-25T01:28:42.902Z,14.52
2024-04-25T01:31:34.995Z,13.32
2024-04-25T01:34:28.262Z,13.13
2024-04-25T01:37:19.472Z,10.70
2024-04-25T01:40:12.602Z,14.35
2024-04-25T01:45:57.812Z,15.07
2024-04-25T01:48:49.119Z,13.40
2024-04-25T01:51:40.267Z,15.85
2024-04-25T01:54:31.456Z,12.65
2024-04-25T01:57:22.829Z,19.40
2024-04-25T02:00:17.631Z,28.40
2024-04-25T02:03:09.235Z,23.70
2024-04-25T02:06:00.369Z,24.60
2024-04-25T02:08:51.395Z,20.63
2024-04-25T02:11:42.452Z,24.35
2024-04-25T02:14:33.777Z,31.83
2024-04-25T02:17:27.634Z,23.60
2024-04-25T02:20:34.950Z,20.90
2024-04-25T02:23:38.298Z,14.18
2024-04-25T02:29:20.190Z,13.15
2024-04-25T02:32:11.608Z,14.65
2024-04-25T02:35:05.458Z,8.93
2024-04-25T02:37:56.794Z,13.80
2024-04-25T02:40:48.055Z,13.73
2024-04-25T02:43:39.091Z,18.17
2024-04-25T02:46:30.303Z,13.88
2024-04-25T02:49:18.966Z,12.88
2024-04-25T02:52:13.124Z,17.45
2024-04-25T02:55:01.757Z,11.27
2024-04-25T02:57:52.898Z,10.52
2024-04-25T03:00:41.478Z,16.77
2024-04-25T03:03:32.770Z,13.18
2024-04-25T03:06:22.668Z,16.52
2024-04-25T03:09:16.632Z,22.63
2024-04-25T03:12:05.822Z,35.95
2024-04-25T03:14:57.023Z,39.20
2024-04-25T03:17:45.636Z,55.42
2024-04-25T03:20:39.433Z,44.65
2024-04-25T03:23:27.973Z,48.00
2024-04-25T03:26:22.101Z,38.85
2024-04-25T03:29:10.575Z,31.25
2024-04-25T03:32:01.669Z,23.73
2024-04-25T03:34:53.486Z,19.88
2024-04-25T03:37:45.259Z,16.48
2024-04-25T03:40:40.227Z,13.95
2024-04-25T03:43:34.275Z,13.35
2024-04-25T03:46:25.265Z,14.40
2024-04-25T03:49:16.266Z,12.10
2024-04-25T03:52:07.619Z,15.35
2024-04-25T03:54:58.788Z,10.73
2024-04-25T03:57:49.897Z,14.25
2024-04-25T04:00:43.622Z,11.38
2024-04-25T04:03:34.737Z,14.40
2024-04-25T04:06:25.790Z,11.73
2024-04-25T04:09:16.837Z,11.55
2024-04-25T04:12:08.503Z,17.02
2024-04-25T04:14:59.762Z,14.80
2024-04-25T04:17:53.502Z,9.75
2024-04-25T04:20:46.513Z,18.65
2024-04-25T04:23:37.689Z,20.00
2024-04-25T04:26:29.068Z,16.38
2024-04-25T04:29:20.279Z,17.58
2024-04-25T04:32:11.369Z,14.20
2024-04-25T04:35:05.225Z,17.00
2024-04-25T04:37:56.402Z,19.58
2024-04-25T04:40:47.663Z,18.00
2024-04-25T04:43:40.888Z,14.88
2024-04-25T04:46:32.028Z,14.90
2024-04-25T04:49:23.071Z,13.73
2024-04-25T04:52:16.735Z,12.43
2024-04-25T04:55:10.320Z,19.30
2024-04-25T04:58:01.424Z,15.45
2024-04-25T05:00:52.554Z,13.50
2024-04-25T05:03:45.056Z,18.70
2024-04-25T05:06:36.300Z,14.93
2024-04-25T05:09:30.118Z,14.30
2024-04-25T05:12:21.507Z,13.68
2024-04-25T05:15:13.047Z,11.25
2024-04-25T05:18:04.676Z,12.27
2024-04-25T05:20:56.206Z,13.60
2024-04-25T05:23:48.942Z,13.95
2024-04-25T05:26:43.035Z,12.25
2024-04-25T05:29:35.599Z,15.15
2024-04-25T05:32:27.737Z,16.02
2024-04-25T05:35:19.286Z,14.45
2024-04-25T05:38:10.800Z,14.55
2024-04-25T05:41:04.025Z,14.10
2024-04-25T05:43:58.059Z,11.07
2024-04-25T05:46:49.512Z,14.52
2024-04-25T05:49:40.648Z,14.02
2024-04-25T05:52:33.054Z,12.57
2024-04-25T05:55:24.131Z,17.95
2024-04-25T05:58:15.225Z,17.48
2024-04-25T06:01:08.996Z,15.52
2024-04-25T06:04:00.141Z,15.85
2024-04-25T06:06:51.233Z,14.02
2024-04-25T06:09:42.235Z,16.35
2024-04-25T06:12:34.122Z,16.33
2024-04-25T06:15:25.490Z,11.27
2024-04-25T06:18:19.454Z,16.20
2024-04-25T06:21:10.791Z,13.00
2024-04-25T06:24:03.553Z,10.77
2024-04-25T06:26:54.737Z,14.85
2024-04-25T06:29:45.909Z,16.48
2024-04-25T06:32:39.522Z,15.75
2024-04-25T06:35:33.826Z,14.43
2024-04-25T06:38:25.386Z,12.15
2024-04-25T06:41:16.528Z,13.98
2024-04-25T06:44:18.655Z,15.43
2024-04-25T06:47:17.979Z,14.48
2024-04-25T06:50:11.366Z,15.48
2024-04-25T06:53:05.238Z,14.05
2024-04-25T06:55:56.406Z,15.30
2024-04-25T06:58:47.488Z,13.43
2024-04-25T07:01:38.612Z,12.25
2024-04-25T07:04:30.140Z,12.48
2024-04-25T07:07:21.336Z,14.32
2024-04-25T07:10:17.061Z,11.50
2024-04-25T07:13:08.827Z,8.40
2024-04-25T07:16:01.019Z,16.50
2024-04-25T07:18:52.249Z,15.57
2024-04-25T07:21:43.327Z,11.88
2024-04-25T07:24:34.981Z,15.90
2024-04-25T07:27:28.983Z,9.15
2024-04-25T07:30:20.305Z,14.57
2024-04-25T07:33:11.689Z,16.27
2024-04-25T07:36:02.884Z,16.92
2024-04-25T07:38:54.339Z,17.38
2024-04-25T07:41:45.598Z,15.18
2024-04-25T07:44:39.811Z,11.02
2024-04-25T07:47:30.944Z,9.98
2024-04-25T07:50:23.477Z,17.17
2024-04-25T07:53:14.575Z,16.85
2024-04-25T07:56:06.012Z,12.52
2024-04-25T07:58:57.168Z,13.95
2024-04-25T08:01:50.933Z,13.07
2024-04-25T08:04:42.601Z,9.35
2024-04-25T08:07:33.943Z,11.27
2024-04-25T08:10:28.082Z,14.45
2024-04-25T08:13:19.439Z,13.75
2024-04-25T08:16:10.925Z,16.20
2024-04-25T08:19:04.833Z,13.27
2024-04-25T08:21:55.896Z,11.13
2024-04-25T08:24:47.278Z,11.68
2024-04-25T08:27:38.327Z,11.38
2024-04-25T08:30:29.383Z,12.77
2024-04-25T08:33:20.613Z,14.25
2024-04-25T08:36:14.735Z,9.65
2024-04-25T08:39:05.747Z,10.45
2024-04-25T08:41:57.610Z,11.43
2024-04-25T08:44:48.867Z,13.85
2024-04-25T08:47:43.366Z,11.55
2024-04-25T08:50:37.278Z,13.77
2024-04-25T08:53:31.353Z,12.68
2024-04-25T08:56:23.686Z,11.35
2024-04-25T08:59:15.218Z,11.10
2024-04-25T09:02:09.938Z,14.82
2024-04-25T09:05:01.174Z,8.82
2024-04-25T09:07:52.279Z,11.68
2024-04-25T09:10:47.256Z,10.05
2024-04-25T09:13:38.368Z,11.82
2024-04-25T09:16:30.061Z,7.63
2024-04-25T09:19:21.720Z,11.73
2024-04-25T09:22:14.075Z,8.60
2024-04-25T09:25:05.315Z,8.80
2024-04-25T09:28:00.124Z,9.85
2024-04-25T09:30:51.182Z,7.05
2024-04-25T09:33:42.979Z,11.23
2024-04-25T09:36:34.255Z,9.30
2024-04-25T09:39:25.317Z,4.78
2024-04-25T09:42:16.841Z,5.78
2024-04-25T09:45:13.810Z,7.68
2024-04-25T09:48:11.375Z,5.38
2024-04-25T09:51:11.336Z,6.72
2024-04-25T09:54:06.495Z,4.15
2024-04-25T09:57:03.934Z,7.22
2024-04-25T10:00:02.783Z,4.03
2024-04-25T10:03:00.440Z,4.18
2024-04-25T10:05:52.450Z,8.27
2024-04-25T10:08:43.833Z,7.93
2024-04-25T10:11:35.022Z,4.45
2024-04-25T10:14:30.017Z,4.75
2024-04-25T10:17:27.374Z,3.80
2024-04-25T10:20:25.625Z,3.20
2024-04-25T10:23:16.963Z,6.60
2024-04-25T10:26:08.365Z,3.90
2024-04-25T10:29:05.313Z,4.47
2024-04-25T10:31:56.952Z,4.10
2024-04-25T10:34:48.747Z,3.28
2024-04-25T10:37:45.267Z,4.63
2024-04-25T10:40:38.229Z,6.97
2024-04-25T10:43:29.313Z,4.82
2024-04-25T10:46:20.474Z,3.72
2024-04-25T10:49:12.676Z,6.00
2024-04-25T10:52:07.678Z,3.88
2024-04-25T10:55:01.496Z,4.68
2024-04-25T10:57:52.804Z,4.50
2024-04-25T11:00:49.022Z,3.15
2024-04-25T11:03:40.217Z,6.10
2024-04-25T11:06:34.712Z,5.50
2024-04-25T11:09:25.792Z,5.57
2024-04-25T11:12:20.993Z,4.45
2024-04-25T11:15:20.434Z,5.65
2024-04-25T11:21:06.207Z,3.70
2024-04-25T11:24:00.136Z,5.68
2024-04-25T11:26:53.788Z,5.15
2024-04-25T11:29:47.638Z,4.88
2024-04-25T11:32:40.533Z,5.13
2024-04-25T11:38:24.835Z,6.25
2024-04-25T11:41:16.019Z,4.32
2024-04-25T11:44:08.740Z,4.68
2024-04-25T11:47:02.992Z,5.90
2024-04-25T11:49:54.467Z,4.63
2024-04-25T11:52:45.839Z,4.22
2024-04-25T11:55:36.940Z,4.47
2024-04-25T11:58:28.091Z,4.10
2024-04-25T12:01:19.239Z,4.07
2024-04-25T12:04:13.005Z,3.88
2024-04-25T12:07:04.132Z,3.05
2024-04-25T12:09:55.205Z,8.30
2024-04-25T12:12:46.352Z,6.53
2024-04-25T12:15:37.903Z,7.78
2024-04-25T12:18:32.043Z,5.28
2024-04-25T12:21:26.416Z,4.47
2024-04-25T12:24:17.449Z,4.07
2024-04-25T12:27:08.647Z,6.07
2024-04-25T12:29:59.805Z,4.22
2024-04-25T12:32:51.011Z,5.07
2024-04-25T12:35:42.283Z,4.72
2024-04-25T12:38:36.157Z,5.43
2024-04-25T12:41:27.626Z,3.42
2024-04-25T12:44:19.134Z,4.25
2024-04-25T12:47:10.309Z,4.47
2024-04-25T12:50:01.845Z,3.05
2024-04-25T12:52:53.397Z,2.63
2024-04-25T12:55:47.843Z,2.47
2024-04-25T12:58:42.197Z,2.53
2024-04-25T13:01:33.440Z,2.47
2024-04-25T13:04:25.039Z,2.85
2024-04-25T13:07:16.156Z,3.65
2024-04-25T13:10:08.100Z,2.10
2024-04-25T13:13:01.793Z,2.33
2024-04-25T13:15:52.800Z,2.58
2024-04-25T13:18:44.169Z,1.58
2024-04-25T13:21:35.313Z,2.08
2024-04-25T13:24:26.346Z,2.95
2024-04-25T13:27:17.799Z,5.72
2024-04-25T13:30:13.311Z,2.58
2024-04-25T13:33:04.469Z,2.38
2024-04-25T13:35:55.687Z,3.28
2024-04-25T13:38:47.171Z,2.45
2024-04-25T13:41:38.373Z,3.85
2024-04-25T13:44:29.829Z,2.50
2024-04-25T13:47:23.638Z,3.60
2024-04-25T13:50:18.454Z,2.92
2024-04-25T13:53:10.083Z,2.70
2024-04-25T13:56:01.373Z,4.45
2024-04-25T13:58:52.511Z,5.68
2024-04-25T14:01:43.950Z,4.80
2024-04-25T14:04:37.788Z,4.72
2024-04-25T14:07:29.019Z,3.83
2024-04-25T14:10:20.129Z,6.00
2024-04-25T14:13:11.211Z,5.72
2024-04-25T14:16:02.378Z,6.68
2024-04-25T14:18:56.229Z,7.35
2024-04-25T14:21:50.570Z,10.55
2024-04-25T14:24:43.587Z,6.50
2024-04-25T14:27:50.284Z,3.88
2024-04-25T14:30:41.651Z,3.20
2024-04-25T14:33:32.843Z,4.22
2024-04-25T14:36:24.021Z,4.85
2024-04-25T14:39:18.084Z,4.55
2024-04-25T14:42:10.552Z,7.93
2024-04-25T14:45:01.700Z,9.25
2024-04-25T14:47:53.002Z,8.75
2024-04-25T14:50:44.196Z,8.70
2024-04-25T14:53:35.760Z,14.30
2024-04-25T14:56:29.559Z,12.25
2024-04-25T14:59:20.997Z,11.95
2024-04-25T15:02:12.443Z,12.50
2024-04-25T15:05:05.936Z,9.80
2024-04-25T15:07:57.765Z,7.55
2024-04-25T15:10:48.866Z,8.98
2024-04-25T15:13:43.791Z,6.85
2024-04-25T15:16:35.424Z,10.68
2024-04-25T15:19:26.562Z,9.35
2024-04-25T15:22:18.317Z,8.55
2024-04-25T15:25:10.493Z,10.07
2024-04-25T15:28:03.787Z,10.40
2024-04-25T15:30:57.487Z,7.43
2024-04-25T15:33:48.632Z,7.55
2024-04-25T15:36:40.435Z,9.40
2024-04-25T15:39:31.774Z,9.95
2024-04-25T15:42:22.946Z,8.80
2024-04-25T15:45:14.222Z,12.52
2024-04-25T15:48:09.743Z,8.27
2024-04-25T15:51:01.397Z,9.43
2024-04-25T15:53:52.997Z,9.25
2024-04-25T15:56:50.128Z,11.98
2024-04-25T15:59:41.311Z,28.20
2024-04-25T16:02:32.681Z,89.38
2024-04-25T16:05:26.559Z,25.48
2024-04-25T16:08:17.850Z,9.40
2024-04-25T16:11:08.962Z,11.48
2024-04-25T16:14:00.137Z,9.05
2024-04-25T16:16:51.305Z,8.82
2024-04-25T16:19:44.245Z,8.60
2024-04-25T16:22:37.980Z,12.85
2024-04-25T16:25:29.365Z,11.43
2024-04-25T16:28:20.501Z,9.07
2024-04-25T16:31:13.100Z,10.35
2024-04-25T16:34:04.216Z,9.63
2024-04-25T16:36:55.283Z,8.65
2024-04-25T16:39:49.103Z,8.88
2024-04-25T16:42:40.451Z,8.75
2024-04-25T16:45:31.817Z,9.55
2024-04-25T16:48:23.268Z,9.43
2024-04-25T16:51:14.393Z,8.02
2024-04-25T16:54:05.873Z,8.18
2024-04-25T16:56:59.715Z,8.35
2024-04-25T16:59:50.924Z,8.55
2024-04-25T17:02:42.586Z,8.35
2024-04-25T17:05:34.280Z,9.95
2024-04-25T17:08:25.783Z,8.10
2024-04-25T17:11:29.112Z,6.07
2024-04-25T17:14:25.384Z,8.55
2024-04-25T17:17:16.742Z,9.25
2024-04-25T17:20:09.390Z,8.98
2024-04-25T17:23:00.519Z,8.60
2024-04-25T17:25:51.634Z,8.60
2024-04-25T17:28:42.718Z,11.85
2024-04-25T17:31:38.376Z,7.78
2024-04-25T17:34:29.572Z,8.60
2024-04-25T17:37:20.746Z,8.13
2024-04-25T17:40:14.935Z,8.07
2024-04-25T17:43:06.320Z,5.78
2024-04-25T17:45:57.398Z,9.32
2024-04-25T17:48:51.387Z,6.45
2024-04-25T17:51:43.207Z,7.22
2024-04-25T17:54:34.375Z,7.88
2024-04-25T17:57:25.410Z,9.13
2024-04-25T18:00:17.255Z,7.50
2024-04-25T18:03:09.829Z,7.45
2024-04-25T18:06:06.798Z,6.60
2024-04-25T18:08:58.406Z,5.47
2024-04-25T18:11:49.685Z,7.97
2024-04-25T18:14:40.820Z,10.57
2024-04-25T18:17:32.152Z,8.60
2024-04-25T18:20:23.676Z,8.70
2024-04-25T18:23:17.555Z,7.47
2024-04-25T18:26:08.921Z,8.45
2024-04-25T18:29:00.265Z,6.20
2024-04-25T18:31:51.685Z,9.00
2024-04-25T18:34:44.978Z,8.05
2024-04-25T18:37:36.400Z,8.68
2024-04-25T18:40:30.159Z,8.80
2024-04-25T18:43:21.651Z,6.72
2024-04-25T18:46:14.469Z,5.57
2024-04-25T18:49:09.712Z,9.35
2024-04-25T18:52:01.201Z,8.90
2024-04-25T18:54:52.304Z,8.90
2024-04-25T18:57:46.044Z,8.00
2024-04-25T19:00:37.142Z,8.65
2024-04-25T19:03:28.337Z,9.93
2024-04-25T19:06:19.403Z,10.45
2024-04-25T19:09:12.639Z,11.07
2024-04-25T19:12:03.760Z,10.63
2024-04-25T19:14:57.569Z,8.45
2024-04-25T19:17:48.783Z,8.80
2024-04-25T19:20:40.213Z,9.90
2024-04-25T19:23:31.375Z,9.82
2024-04-25T19:26:22.547Z,7.65
2024-04-25T19:29:17.352Z,8.68
2024-04-25T19:32:11.428Z,11.98
2024-04-25T19:35:02.589Z,9.98
2024-04-25T19:37:56.121Z,8.57
2024-04-25T19:40:47.243Z,9.27
2024-04-25T19:43:38.307Z,13.77
2024-04-25T19:46:29.360Z,9.40
2024-04-25T19:49:23.125Z,11.05
2024-04-25T19:52:14.736Z,8.10
2024-04-25T19:55:05.917Z,6.25
2024-04-25T19:57:57.257Z,8.48
2024-04-25T20:00:49.124Z,8.18
2024-04-25T20:03:40.822Z,6.82
2024-04-25T20:06:34.720Z,4.90
2024-04-25T20:09:25.859Z,4.95
2024-04-25T20:12:17.030Z,5.38
2024-04-25T20:15:09.293Z,3.88
2024-04-25T20:18:16.419Z,5.83
2024-04-25T20:21:08.954Z,5.05
2024-04-25T20:24:05.250Z,7.07
2024-04-25T20:26:57.140Z,5.85
2024-04-25T20:29:50.738Z,6.28
2024-04-25T20:32:45.066Z,5.03
2024-04-25T20:35:36.173Z,5.30
2024-04-25T20:38:27.254Z,5.45
2024-04-25T20:41:22.889Z,5.57
2024-04-25T20:44:18.384Z,6.07
2024-04-25T20:47:11.061Z,6.05
2024-04-25T20:50:11.899Z,5.80
2024-04-25T20:53:09.566Z,7.30
2024-04-25T20:56:04.766Z,6.53
2024-04-25T20:58:58.995Z,6.03
2024-04-25T21:01:56.348Z,6.05
2024-04-25T21:04:50.175Z,4.30
2024-04-25T21:07:44.168Z,5.18
2024-04-25T21:10:36.076Z,4.53
2024-04-25T21:13:31.465Z,3.90
2024-04-25T21:16:35.265Z,4.40
2024-04-25T21:19:26.349Z,6.78
2024-04-25T21:22:17.632Z,4.40
2024-04-25T21:25:09.061Z,3.38
2024-04-25T21:28:00.228Z,4.50
2024-04-25T21:30:51.583Z,5.00
2024-04-25T21:33:46.103Z,3.00
2024-04-25T21:36:39.822Z,4.10
2024-04-25T21:39:30.969Z,5.55
2024-04-25T21:42:22.124Z,3.10
2024-04-25T21:45:13.476Z,3.65
2024-04-25T21:48:04.720Z,3.78
2024-04-25T21:50:58.485Z,4.70
2024-04-25T21:53:51.744Z,4.25
2024-04-25T21:56:43.324Z,5.07
2024-04-25T21:59:34.804Z,4.20
2024-04-25T22:02:25.901Z,3.30
2024-04-25T22:05:17.425Z,2.90
2024-04-25T22:08:11.962Z,2.10
2024-04-25T22:11:03.295Z,4.10
2024-04-25T22:13:54.373Z,3.03
2024-04-25T22:16:45.721Z,3.55
2024-04-25T22:19:36.864Z,3.75
2024-04-25T22:22:28.083Z,3.47
2024-04-25T22:25:21.907Z,6.05
2024-04-25T22:28:12.958Z,5.80
2024-04-25T22:31:03.993Z,3.42
2024-04-25T22:33:55.501Z,3.45
2024-04-25T22:36:46.742Z,4.10
2024-04-25T22:39:37.844Z,4.63
2024-04-25T22:42:31.648Z,4.45
2024-04-25T22:45:25.259Z,3.80
2024-04-25T22:48:22.946Z,3.60
2024-04-25T22:51:14.062Z,5.28
2024-04-25T22:54:05.280Z,5.40
2024-04-25T22:56:56.379Z,3.60
2024-04-25T22:59:50.362Z,4.50
2024-04-25T23:02:41.866Z,3.08
2024-04-25T23:05:38.896Z,3.45
2024-04-25T23:08:30.094Z,4.07
2024-04-25T23:11:22.251Z,2.22
2024-04-25T23:14:13.459Z,4.40
2024-04-25T23:17:09.089Z,3.78
2024-04-25T23:20:00.407Z,2.70
2024-04-25T23:22:51.744Z,3.63
2024-04-25T23:25:42.784Z,4.20
2024-04-25T23:28:33.838Z,5.85
2024-04-25T23:31:25.007Z,5.07
2024-04-25T23:34:19.031Z,3.85
2024-04-25T23:37:10.539Z,3.33
2024-04-25T23:40:04.002Z,27.80
2024-04-25T23:42:55.080Z,4.53
2024-04-25T23:45:46.281Z,5.88
2024-04-25T23:48:37.411Z,6.18
2024-04-25T23:51:31.466Z,7.22
2024-04-25T23:54:22.817Z,7.53
2024-04-25T23:57:14.248Z,9.23
